UAL23 KDFW-YSSY
Flight info
| Callsign | UAL23 |
|---|---|
| Flight time | N/A |
| Altitude | 32000 |
| Route | NELYN6 HOARY DCT PNG DCT NAPDA DCT MZT DCT 2202N10727W 2015N10935W 1808N11201W 1708N11313W 1341N11720W 1135N12000W 0959N12159W 0708N12538W 0607N12656W 0330N13010W 0254N13054W 0037S13457W 0233S13709W 0524S14029W 0750S14343W 1035S14835W 1325S15357W 1517S15700W 1544S15745W 1743S16049W 1926S16327W 2203S16706W 2435S17024W 2651S17328W 2904S17649W 3133S17829E 3227S17618E 3327S17318E 3348S17200E 3437S16706E 3445S16300E 3446S16218E DCT AKALU N774 MARLN |
| Aircraft | B772/H-SDE2E3FGHIJ5LORVWXY/LB1D1 |
Departure
| Time | 2026-05-08 03:31 |
|---|---|
| Airport | Dallas Fort Worth International Airport (KDFW) |
Arrival
| Time | N/A |
|---|---|
| Airport | Sydney Kingsford Smith International Airport (YSSY) |
| Time | Latitude | Longitude | Altitude | Speed | Heading |
|---|---|---|---|---|---|
| 2026-05-08 02:55 | 32.88983 | -97.03508 | 579 ft | 0 kts | 287° |
| 2026-05-08 03:16 | 32.88982 | -97.03503 | 579 ft | 2 kts | 287° |
| 2026-05-08 03:16 | 32.88977 | -97.03485 | 579 ft | 2 kts | 287° |
| 2026-05-08 03:16 | 32.88972 | -97.03469 | 579 ft | 2 kts | 307° |
| 2026-05-08 03:16 | 32.88961 | -97.03457 | 579 ft | 2 kts | 337° |
| 2026-05-08 03:17 | 32.88947 | -97.03453 | 579 ft | 2 kts | 4° |
| 2026-05-08 03:17 | 32.88937 | -97.03455 | 579 ft | 0 kts | 21° |
| 2026-05-08 03:17 | 32.88933 | -97.03457 | 579 ft | 0 kts | 21° |
| 2026-05-08 03:19 | 32.88936 | -97.03456 | 579 ft | 1 kts | 21° |
| 2026-05-08 03:20 | 32.88958 | -97.03445 | 579 ft | 5 kts | 21° |
| 2026-05-08 03:20 | 32.89006 | -97.03423 | 579 ft | 9 kts | 22° |
| 2026-05-08 03:20 | 32.89069 | -97.03391 | 580 ft | 9 kts | 22° |
| 2026-05-08 03:20 | 32.89127 | -97.03363 | 581 ft | 8 kts | 23° |
| 2026-05-08 03:21 | 32.89178 | -97.03338 | 582 ft | 8 kts | 23° |
| 2026-05-08 03:21 | 32.89244 | -97.03320 | 582 ft | 12 kts | 2° |
| 2026-05-08 03:21 | 32.89335 | -97.03320 | 582 ft | 13 kts | 0° |
| 2026-05-08 03:21 | 32.89431 | -97.03319 | 582 ft | 13 kts | 1° |
| 2026-05-08 03:22 | 32.89522 | -97.03316 | 583 ft | 12 kts | 1° |
| 2026-05-08 03:22 | 32.89606 | -97.03318 | 584 ft | 12 kts | 360° |
| 2026-05-08 03:22 | 32.89691 | -97.03317 | 585 ft | 12 kts | 0° |
| 2026-05-08 03:22 | 32.89787 | -97.03316 | 585 ft | 14 kts | 0° |
| 2026-05-08 03:23 | 32.89888 | -97.03316 | 586 ft | 14 kts | 0° |
| 2026-05-08 03:23 | 32.89987 | -97.03315 | 588 ft | 13 kts | 1° |
| 2026-05-08 03:23 | 32.90086 | -97.03315 | 588 ft | 14 kts | 360° |
| 2026-05-08 03:23 | 32.90189 | -97.03314 | 589 ft | 14 kts | 0° |
| 2026-05-08 03:24 | 32.90290 | -97.03314 | 591 ft | 13 kts | 360° |
| 2026-05-08 03:24 | 32.90385 | -97.03313 | 591 ft | 13 kts | 0° |
| 2026-05-08 03:24 | 32.90482 | -97.03313 | 591 ft | 14 kts | 0° |
| 2026-05-08 03:24 | 32.90582 | -97.03311 | 593 ft | 14 kts | 1° |
| 2026-05-08 03:25 | 32.90683 | -97.03308 | 594 ft | 13 kts | 1° |
| 2026-05-08 03:25 | 32.90782 | -97.03310 | 592 ft | 14 kts | 358° |
| 2026-05-08 03:25 | 32.90883 | -97.03311 | 591 ft | 14 kts | 0° |
| 2026-05-08 03:25 | 32.90979 | -97.03310 | 591 ft | 13 kts | 7° |
| 2026-05-08 03:26 | 32.91075 | -97.03276 | 588 ft | 15 kts | 4° |
| 2026-05-08 03:26 | 32.91180 | -97.03274 | 587 ft | 15 kts | 0° |
| 2026-05-08 03:26 | 32.91288 | -97.03273 | 585 ft | 15 kts | 359° |
| 2026-05-08 03:26 | 32.91399 | -97.03273 | 583 ft | 16 kts | 0° |
| 2026-05-08 03:27 | 32.91495 | -97.03273 | 581 ft | 11 kts | 0° |
| 2026-05-08 03:27 | 32.91548 | -97.03258 | 580 ft | 7 kts | 51° |
| 2026-05-08 03:27 | 32.91558 | -97.03197 | 579 ft | 3 kts | 88° |
| 2026-05-08 03:27 | 32.91559 | -97.03170 | 579 ft | 3 kts | 89° |
| 2026-05-08 03:28 | 32.91559 | -97.03159 | 579 ft | 0 kts | 89° |
| 2026-05-08 03:28 | 32.91559 | -97.03148 | 579 ft | 0 kts | 90° |
| 2026-05-08 03:28 | 32.91559 | -97.03146 | 579 ft | 1 kts | 90° |
| 2026-05-08 03:28 | 32.91559 | -97.03119 | 578 ft | 5 kts | 90° |
| 2026-05-08 03:29 | 32.91559 | -97.03069 | 577 ft | 7 kts | 90° |
| 2026-05-08 03:29 | 32.91550 | -97.03007 | 576 ft | 8 kts | 126° |
| 2026-05-08 03:29 | 32.91496 | -97.02992 | 576 ft | 8 kts | 179° |
| 2026-05-08 03:29 | 32.91367 | -97.02991 | 578 ft | 42 kts | 180° |
| 2026-05-08 03:30 | 32.89954 | -97.02997 | 579 ft | 155 kts | 180° |
| 2026-05-08 03:30 | 32.87358 | -97.02978 | 1164 ft | 196 kts | 179° |
| 2026-05-08 03:31 | 32.84526 | -97.03023 | 2415 ft | 207 kts | 180° |
| 2026-05-08 03:31 | 32.81432 | -97.03021 | 2779 ft | 238 kts | 178° |
| 2026-05-08 03:32 | 32.79735 | -97.03010 | 3133 ft | 246 kts | 178° |
| 2026-05-08 03:32 | 32.78001 | -97.03001 | 3566 ft | 252 kts | 178° |
| 2026-05-08 03:32 | 32.76219 | -97.02986 | 4059 ft | 255 kts | 179° |
| 2026-05-08 03:32 | 32.74451 | -97.02992 | 4605 ft | 255 kts | 180° |
| 2026-05-08 03:33 | 32.72692 | -97.03002 | 5110 ft | 256 kts | 180° |
| 2026-05-08 03:33 | 32.70903 | -97.02907 | 5578 ft | 258 kts | 167° |
| 2026-05-08 03:33 | 32.69199 | -97.02226 | 5962 ft | 265 kts | 159° |
| 2026-05-08 03:33 | 32.67486 | -97.01350 | 6352 ft | 270 kts | 158° |
| 2026-05-08 03:34 | 32.65743 | -97.00444 | 6809 ft | 273 kts | 159° |
| 2026-05-08 03:34 | 32.63985 | -96.99539 | 7260 ft | 276 kts | 159° |
| 2026-05-08 03:34 | 32.62206 | -96.98709 | 7691 ft | 277 kts | 171° |
| 2026-05-08 03:34 | 32.60290 | -96.98643 | 8043 ft | 275 kts | 195° |
| 2026-05-08 03:35 | 32.58511 | -96.99435 | 8491 ft | 273 kts | 208° |
| 2026-05-08 03:35 | 32.56829 | -97.00466 | 9014 ft | 272 kts | 211° |
| 2026-05-08 03:35 | 32.53916 | -97.02338 | 9827 ft | 274 kts | 212° |
| 2026-05-08 03:36 | 32.52248 | -97.03410 | 10213 ft | 278 kts | 212° |
| 2026-05-08 03:36 | 32.50504 | -97.04531 | 10318 ft | 294 kts | 212° |
| 2026-05-08 03:36 | 32.48646 | -97.05723 | 10392 ft | 311 kts | 211° |
| 2026-05-08 03:36 | 32.46694 | -97.06973 | 10475 ft | 326 kts | 211° |
| 2026-05-08 03:37 | 32.44641 | -97.08287 | 10553 ft | 342 kts | 211° |
| 2026-05-08 03:37 | 32.42520 | -97.09644 | 10673 ft | 356 kts | 211° |
| 2026-05-08 03:37 | 32.40312 | -97.11055 | 11050 ft | 362 kts | 211° |
| 2026-05-08 03:37 | 32.38082 | -97.12478 | 11533 ft | 364 kts | 212° |
| 2026-05-08 03:38 | 32.35850 | -97.13902 | 12004 ft | 366 kts | 212° |
| 2026-05-08 03:38 | 32.33631 | -97.15318 | 12467 ft | 368 kts | 212° |
| 2026-05-08 03:38 | 32.31357 | -97.16769 | 12900 ft | 371 kts | 212° |
| 2026-05-08 03:38 | 32.29008 | -97.18057 | 13345 ft | 376 kts | 203° |
| 2026-05-08 03:39 | 32.26448 | -97.18844 | 13758 ft | 384 kts | 193° |
| 2026-05-08 03:39 | 32.23798 | -97.19242 | 14184 ft | 388 kts | 191° |
| 2026-05-08 03:39 | 32.21104 | -97.19599 | 14661 ft | 389 kts | 191° |
| 2026-05-08 03:39 | 32.18407 | -97.19956 | 15104 ft | 391 kts | 191° |
| 2026-05-08 03:40 | 32.15704 | -97.20316 | 15508 ft | 394 kts | 191° |
| 2026-05-08 03:40 | 32.12972 | -97.20679 | 15908 ft | 396 kts | 191° |
| 2026-05-08 03:40 | 32.10218 | -97.21047 | 16316 ft | 399 kts | 191° |
| 2026-05-08 03:40 | 32.07444 | -97.21417 | 16713 ft | 401 kts | 191° |
| 2026-05-08 03:41 | 32.04688 | -97.21785 | 17124 ft | 403 kts | 192° |
| 2026-05-08 03:41 | 32.01892 | -97.22158 | 17503 ft | 405 kts | 191° |
| 2026-05-08 03:41 | 31.99068 | -97.22535 | 17838 ft | 408 kts | 191° |
| 2026-05-08 03:41 | 31.96247 | -97.22912 | 18163 ft | 411 kts | 192° |
| 2026-05-08 03:42 | 31.93383 | -97.23293 | 18587 ft | 412 kts | 192° |
| 2026-05-08 03:42 | 31.90529 | -97.23673 | 18946 ft | 414 kts | 192° |
| 2026-05-08 03:42 | 31.87672 | -97.24054 | 19261 ft | 417 kts | 192° |
| 2026-05-08 03:42 | 31.84767 | -97.24441 | 19619 ft | 419 kts | 192° |
| 2026-05-08 03:43 | 31.81854 | -97.24828 | 19981 ft | 421 kts | 192° |
| 2026-05-08 03:43 | 31.78953 | -97.25214 | 20358 ft | 422 kts | 192° |
| 2026-05-08 03:43 | 31.76024 | -97.25602 | 20738 ft | 423 kts | 193° |
| 2026-05-08 03:43 | 31.73114 | -97.25989 | 21040 ft | 425 kts | 193° |
| 2026-05-08 03:44 | 31.70146 | -97.26383 | 21375 ft | 427 kts | 193° |
| 2026-05-08 03:44 | 31.67194 | -97.26850 | 21675 ft | 425 kts | 199° |
| 2026-05-08 03:44 | 31.64389 | -97.27788 | 21965 ft | 419 kts | 207° |
| 2026-05-08 03:44 | 31.61673 | -97.29040 | 22329 ft | 417 kts | 208° |
| 2026-05-08 03:45 | 31.59012 | -97.30297 | 22710 ft | 417 kts | 208° |
| 2026-05-08 03:45 | 31.56297 | -97.31580 | 23044 ft | 417 kts | 208° |
| 2026-05-08 03:45 | 31.53618 | -97.32845 | 23318 ft | 419 kts | 209° |
| 2026-05-08 03:45 | 31.50894 | -97.34129 | 23638 ft | 419 kts | 208° |
| 2026-05-08 03:46 | 31.48216 | -97.35390 | 23969 ft | 419 kts | 208° |
| 2026-05-08 03:46 | 31.45527 | -97.36655 | 24278 ft | 419 kts | 208° |
| 2026-05-08 03:46 | 31.42805 | -97.37936 | 24543 ft | 420 kts | 208° |
| 2026-05-08 03:46 | 31.40075 | -97.39218 | 24838 ft | 421 kts | 208° |
| 2026-05-08 03:47 | 31.37383 | -97.40482 | 25120 ft | 421 kts | 208° |
| 2026-05-08 03:47 | 31.34649 | -97.41766 | 25357 ft | 423 kts | 208° |
| 2026-05-08 03:47 | 31.31909 | -97.43050 | 25641 ft | 423 kts | 208° |
| 2026-05-08 03:47 | 31.29200 | -97.44319 | 25937 ft | 423 kts | 208° |
| 2026-05-08 03:48 | 31.26458 | -97.45603 | 26216 ft | 423 kts | 208° |
| 2026-05-08 03:48 | 31.23718 | -97.46886 | 26449 ft | 425 kts | 208° |
| 2026-05-08 03:48 | 31.20975 | -97.48169 | 26694 ft | 425 kts | 208° |
| 2026-05-08 03:48 | 31.18224 | -97.49455 | 26904 ft | 427 kts | 208° |
| 2026-05-08 03:49 | 31.15483 | -97.50735 | 27145 ft | 428 kts | 207° |
| 2026-05-08 03:49 | 31.12705 | -97.52031 | 27385 ft | 428 kts | 207° |
| 2026-05-08 03:49 | 31.09939 | -97.53321 | 27626 ft | 429 kts | 208° |
| 2026-05-08 03:49 | 31.07166 | -97.54614 | 27821 ft | 430 kts | 207° |
| 2026-05-08 03:50 | 31.04384 | -97.55911 | 28045 ft | 431 kts | 207° |
| 2026-05-08 03:50 | 31.01601 | -97.57206 | 28259 ft | 432 kts | 208° |
| 2026-05-08 03:50 | 30.98791 | -97.58514 | 28416 ft | 434 kts | 207° |
| 2026-05-08 03:50 | 30.95973 | -97.59824 | 28611 ft | 435 kts | 207° |
| 2026-05-08 03:51 | 30.93182 | -97.61121 | 28806 ft | 436 kts | 207° |
| 2026-05-08 03:51 | 30.90352 | -97.62435 | 29038 ft | 436 kts | 207° |
| 2026-05-08 03:51 | 30.87521 | -97.63748 | 29298 ft | 436 kts | 207° |
| 2026-05-08 03:51 | 30.84693 | -97.65060 | 29542 ft | 436 kts | 207° |
| 2026-05-08 03:52 | 30.81902 | -97.66352 | 29886 ft | 434 kts | 207° |
| 2026-05-08 03:52 | 30.79097 | -97.67651 | 30297 ft | 431 kts | 207° |
| 2026-05-08 03:52 | 30.76316 | -97.68938 | 30669 ft | 428 kts | 207° |
| 2026-05-08 03:52 | 30.73578 | -97.70204 | 30986 ft | 426 kts | 208° |
| 2026-05-08 03:53 | 30.70824 | -97.71478 | 31256 ft | 426 kts | 207° |
| 2026-05-08 03:53 | 30.68068 | -97.72752 | 31494 ft | 425 kts | 207° |
| 2026-05-08 03:53 | 30.65316 | -97.74023 | 31775 ft | 424 kts | 207° |
| 2026-05-08 03:53 | 30.62568 | -97.75301 | 32026 ft | 422 kts | 209° |
| 2026-05-08 03:54 | 30.59985 | -97.76817 | 32042 ft | 418 kts | 216° |
| 2026-05-08 03:54 | 30.55455 | -97.80950 | 32048 ft | 411 kts | 229° |
| 2026-05-08 03:55 | 30.51845 | -97.86050 | 32047 ft | 406 kts | 233° |
| 2026-05-08 03:55 | 30.48362 | -97.91209 | 32051 ft | 406 kts | 233° |
| 2026-05-08 03:56 | 30.44877 | -97.96339 | 32049 ft | 406 kts | 233° |
| 2026-05-08 03:56 | 30.41369 | -98.01481 | 32046 ft | 406 kts | 233° |
| 2026-05-08 03:57 | 30.37867 | -98.06602 | 32044 ft | 406 kts | 233° |
| 2026-05-08 03:57 | 30.34365 | -98.11712 | 32031 ft | 406 kts | 233° |
| 2026-05-08 03:58 | 30.30874 | -98.16800 | 32029 ft | 406 kts | 233° |
| 2026-05-08 03:58 | 30.27344 | -98.21936 | 32024 ft | 407 kts | 233° |
| 2026-05-08 03:59 | 30.23828 | -98.27045 | 32021 ft | 407 kts | 232° |
| 2026-05-08 03:59 | 30.20309 | -98.32152 | 32016 ft | 406 kts | 233° |
| 2026-05-08 04:00 | 30.16774 | -98.37275 | 32026 ft | 408 kts | 233° |
| 2026-05-08 04:00 | 30.13249 | -98.42377 | 32028 ft | 407 kts | 233° |
| 2026-05-08 04:01 | 30.09729 | -98.47465 | 32024 ft | 406 kts | 233° |
| 2026-05-08 04:01 | 30.06199 | -98.52562 | 32030 ft | 407 kts | 233° |
| 2026-05-08 04:02 | 30.02672 | -98.57648 | 32025 ft | 406 kts | 233° |
| 2026-05-08 04:02 | 29.99145 | -98.62727 | 32028 ft | 406 kts | 232° |
| 2026-05-08 04:03 | 29.95628 | -98.67785 | 32036 ft | 406 kts | 232° |
| 2026-05-08 04:03 | 29.90322 | -98.75404 | 32028 ft | 405 kts | 232° |
| 2026-05-08 04:04 | 29.86796 | -98.80460 | 32039 ft | 406 kts | 232° |
| 2026-05-08 04:04 | 29.83234 | -98.85561 | 32042 ft | 407 kts | 232° |
| 2026-05-08 04:05 | 29.79694 | -98.90623 | 32038 ft | 407 kts | 232° |
| 2026-05-08 04:05 | 29.76163 | -98.95667 | 32037 ft | 406 kts | 232° |
| 2026-05-08 04:06 | 29.72626 | -99.00712 | 32034 ft | 407 kts | 232° |
| 2026-05-08 04:06 | 29.69050 | -99.05807 | 32033 ft | 407 kts | 232° |
| 2026-05-08 04:07 | 29.65508 | -99.10847 | 32036 ft | 408 kts | 232° |
| 2026-05-08 04:07 | 29.61934 | -99.15926 | 32032 ft | 408 kts | 232° |
| 2026-05-08 04:08 | 29.58370 | -99.20986 | 32033 ft | 409 kts | 232° |
| 2026-05-08 04:08 | 29.54805 | -99.26041 | 32027 ft | 408 kts | 232° |
| 2026-05-08 04:09 | 29.51220 | -99.31116 | 32024 ft | 410 kts | 232° |
| 2026-05-08 04:09 | 29.47657 | -99.36155 | 32022 ft | 407 kts | 232° |
| 2026-05-08 04:10 | 29.44069 | -99.41223 | 32021 ft | 410 kts | 232° |
| 2026-05-08 04:10 | 29.40488 | -99.46275 | 32016 ft | 409 kts | 232° |
| 2026-05-08 04:11 | 29.36905 | -99.51322 | 32013 ft | 408 kts | 231° |
| 2026-05-08 04:11 | 29.33324 | -99.56362 | 32014 ft | 408 kts | 232° |
| 2026-05-08 04:12 | 29.29744 | -99.61393 | 32010 ft | 408 kts | 232° |
| 2026-05-08 04:12 | 29.26157 | -99.66429 | 32022 ft | 409 kts | 231° |
| 2026-05-08 04:13 | 29.22548 | -99.71488 | 32027 ft | 409 kts | 231° |
| 2026-05-08 04:13 | 29.18973 | -99.76494 | 32018 ft | 409 kts | 231° |
| 2026-05-08 04:14 | 29.15349 | -99.81562 | 32017 ft | 410 kts | 231° |
| 2026-05-08 04:14 | 29.11754 | -99.86585 | 32015 ft | 408 kts | 231° |
| 2026-05-08 04:15 | 29.08142 | -99.91624 | 32012 ft | 410 kts | 231° |
| 2026-05-08 04:15 | 29.04535 | -99.96650 | 32004 ft | 410 kts | 231° |
| 2026-05-08 04:16 | 29.00925 | -100.01675 | 31998 ft | 409 kts | 231° |
| 2026-05-08 04:16 | 28.97291 | -100.06726 | 31996 ft | 411 kts | 231° |
| 2026-05-08 04:17 | 28.93688 | -100.11728 | 31995 ft | 410 kts | 231° |
| 2026-05-08 04:17 | 28.90061 | -100.16758 | 31988 ft | 412 kts | 231° |
| 2026-05-08 04:18 | 28.86407 | -100.21818 | 32002 ft | 411 kts | 231° |
| 2026-05-08 04:18 | 28.82777 | -100.26839 | 31996 ft | 410 kts | 231° |
| 2026-05-08 04:19 | 28.79149 | -100.31853 | 31998 ft | 411 kts | 231° |
| 2026-05-08 04:19 | 28.75502 | -100.36885 | 31992 ft | 412 kts | 231° |
| 2026-05-08 04:20 | 28.71856 | -100.41911 | 31991 ft | 411 kts | 231° |
| 2026-05-08 04:20 | 28.68216 | -100.46922 | 31989 ft | 410 kts | 231° |
| 2026-05-08 04:21 | 28.64578 | -100.51923 | 31984 ft | 413 kts | 231° |
| 2026-05-08 04:21 | 28.60916 | -100.56928 | 31979 ft | 412 kts | 231° |
| 2026-05-08 04:22 | 28.57216 | -100.61943 | 31982 ft | 414 kts | 231° |
| 2026-05-08 04:22 | 28.53523 | -100.66944 | 32005 ft | 413 kts | 230° |
| 2026-05-08 04:23 | 28.49827 | -100.71945 | 32003 ft | 413 kts | 230° |
| 2026-05-08 04:23 | 28.46149 | -100.76917 | 32003 ft | 413 kts | 230° |
| 2026-05-08 04:24 | 28.42463 | -100.81892 | 32001 ft | 411 kts | 231° |
| 2026-05-08 04:24 | 28.38784 | -100.86855 | 32005 ft | 412 kts | 230° |
| 2026-05-08 04:25 | 28.35076 | -100.91848 | 32004 ft | 413 kts | 230° |
| 2026-05-08 04:25 | 28.31376 | -100.96826 | 32006 ft | 412 kts | 230° |
| 2026-05-08 04:26 | 28.27685 | -101.01787 | 32008 ft | 413 kts | 230° |
| 2026-05-08 04:26 | 28.23983 | -101.06754 | 32011 ft | 413 kts | 230° |
| 2026-05-08 04:27 | 28.20264 | -101.11740 | 32004 ft | 413 kts | 230° |
| 2026-05-08 04:27 | 28.16555 | -101.16707 | 32012 ft | 415 kts | 230° |
| 2026-05-08 04:28 | 28.12843 | -101.21671 | 32013 ft | 414 kts | 230° |
| 2026-05-08 04:28 | 28.09118 | -101.26647 | 32006 ft | 414 kts | 230° |
| 2026-05-08 04:29 | 28.05376 | -101.31640 | 32012 ft | 416 kts | 230° |
| 2026-05-08 04:29 | 28.01648 | -101.36608 | 32015 ft | 412 kts | 230° |
| 2026-05-08 04:30 | 27.97939 | -101.41545 | 32034 ft | 413 kts | 231° |
| 2026-05-08 04:30 | 27.94218 | -101.46492 | 32031 ft | 412 kts | 231° |
| 2026-05-08 04:31 | 27.90499 | -101.51432 | 32046 ft | 414 kts | 230° |
| 2026-05-08 04:31 | 27.86732 | -101.56429 | 32066 ft | 412 kts | 231° |
| 2026-05-08 04:32 | 27.83027 | -101.61339 | 32074 ft | 413 kts | 230° |
| 2026-05-08 04:32 | 27.79304 | -101.66265 | 32088 ft | 412 kts | 230° |
| 2026-05-08 04:33 | 27.75555 | -101.71222 | 32097 ft | 414 kts | 230° |
| 2026-05-08 04:33 | 27.71821 | -101.76151 | 32090 ft | 413 kts | 230° |
| 2026-05-08 04:34 | 27.68095 | -101.81066 | 32091 ft | 413 kts | 230° |
| 2026-05-08 04:34 | 27.64386 | -101.85951 | 32100 ft | 414 kts | 230° |
| 2026-05-08 04:35 | 27.60644 | -101.90876 | 32108 ft | 413 kts | 230° |
| 2026-05-08 04:35 | 27.56899 | -101.95798 | 32124 ft | 413 kts | 230° |
| 2026-05-08 04:36 | 27.53180 | -102.00680 | 32146 ft | 412 kts | 230° |
| 2026-05-08 04:36 | 27.49448 | -102.05574 | 32143 ft | 411 kts | 230° |
| 2026-05-08 04:37 | 27.45723 | -102.10454 | 32146 ft | 411 kts | 230° |
| 2026-05-08 04:37 | 27.41997 | -102.15329 | 32141 ft | 411 kts | 230° |
| 2026-05-08 04:38 | 27.38278 | -102.20189 | 32127 ft | 410 kts | 230° |
| 2026-05-08 04:38 | 27.34562 | -102.25040 | 32099 ft | 410 kts | 230° |
| 2026-05-08 04:39 | 27.30834 | -102.29900 | 32101 ft | 411 kts | 230° |
| 2026-05-08 04:39 | 27.27109 | -102.34753 | 32106 ft | 410 kts | 230° |
| 2026-05-08 04:40 | 27.23370 | -102.39618 | 32114 ft | 410 kts | 230° |
| 2026-05-08 04:40 | 27.19646 | -102.44457 | 32150 ft | 412 kts | 230° |
| 2026-05-08 04:41 | 27.15907 | -102.49310 | 32161 ft | 409 kts | 230° |
| 2026-05-08 04:41 | 27.12204 | -102.54113 | 32159 ft | 411 kts | 230° |
| 2026-05-08 04:42 | 27.08447 | -102.58979 | 32147 ft | 409 kts | 230° |
| 2026-05-08 04:42 | 27.04743 | -102.63771 | 32137 ft | 410 kts | 230° |
| 2026-05-08 04:43 | 27.00988 | -102.68625 | 32130 ft | 410 kts | 230° |
| 2026-05-08 04:43 | 26.97272 | -102.73422 | 32138 ft | 411 kts | 230° |
| 2026-05-08 04:44 | 26.93505 | -102.78279 | 32129 ft | 410 kts | 229° |
| 2026-05-08 04:44 | 26.89793 | -102.83061 | 32145 ft | 411 kts | 230° |
| 2026-05-08 04:45 | 26.86021 | -102.87915 | 32160 ft | 409 kts | 230° |
| 2026-05-08 04:45 | 26.82294 | -102.92705 | 32162 ft | 411 kts | 230° |
| 2026-05-08 04:46 | 26.78533 | -102.97533 | 32148 ft | 409 kts | 230° |
| 2026-05-08 04:46 | 26.74817 | -103.02299 | 32132 ft | 408 kts | 230° |
| 2026-05-08 04:47 | 26.71076 | -103.07091 | 32139 ft | 411 kts | 230° |
| 2026-05-08 04:47 | 26.67315 | -103.11905 | 32127 ft | 408 kts | 230° |
| 2026-05-08 04:48 | 26.63580 | -103.16680 | 32134 ft | 409 kts | 230° |
| 2026-05-08 04:48 | 26.59846 | -103.21448 | 32139 ft | 409 kts | 230° |
| 2026-05-08 04:49 | 26.56086 | -103.26244 | 32135 ft | 410 kts | 230° |
| 2026-05-08 04:49 | 26.52332 | -103.31027 | 32134 ft | 410 kts | 230° |
| 2026-05-08 04:50 | 26.48541 | -103.35852 | 32126 ft | 412 kts | 230° |
| 2026-05-08 04:50 | 26.44785 | -103.40627 | 32129 ft | 412 kts | 230° |
| 2026-05-08 04:51 | 26.40994 | -103.45442 | 32125 ft | 413 kts | 230° |
| 2026-05-08 04:51 | 26.37198 | -103.50259 | 32124 ft | 414 kts | 230° |
| 2026-05-08 04:52 | 26.33425 | -103.55040 | 32123 ft | 411 kts | 230° |
| 2026-05-08 04:52 | 26.29642 | -103.59829 | 32124 ft | 414 kts | 230° |
| 2026-05-08 04:53 | 26.25841 | -103.64636 | 32104 ft | 411 kts | 230° |
| 2026-05-08 04:53 | 26.22041 | -103.69435 | 32123 ft | 414 kts | 229° |
| 2026-05-08 04:54 | 26.18258 | -103.74210 | 32119 ft | 414 kts | 230° |
| 2026-05-08 04:54 | 26.14452 | -103.79007 | 32118 ft | 413 kts | 229° |
| 2026-05-08 04:55 | 26.10631 | -103.83818 | 32127 ft | 415 kts | 229° |
| 2026-05-08 04:55 | 26.06814 | -103.88619 | 32144 ft | 414 kts | 230° |
| 2026-05-08 04:56 | 26.02979 | -103.93439 | 32146 ft | 416 kts | 229° |
| 2026-05-08 04:56 | 25.99174 | -103.98215 | 32154 ft | 415 kts | 230° |
| 2026-05-08 04:57 | 25.95347 | -104.03013 | 32180 ft | 414 kts | 229° |
| 2026-05-08 04:57 | 25.91524 | -104.07801 | 32196 ft | 415 kts | 230° |
| 2026-05-08 04:58 | 25.87688 | -104.12600 | 32229 ft | 413 kts | 230° |
| 2026-05-08 04:58 | 25.83863 | -104.17382 | 32219 ft | 415 kts | 230° |
| 2026-05-08 04:59 | 25.80059 | -104.22130 | 32233 ft | 413 kts | 230° |
| 2026-05-08 04:59 | 25.76212 | -104.26929 | 32222 ft | 414 kts | 230° |
| 2026-05-08 05:00 | 25.72398 | -104.31680 | 32244 ft | 415 kts | 230° |
| 2026-05-08 05:00 | 25.68547 | -104.36473 | 32261 ft | 415 kts | 229° |
| 2026-05-08 05:01 | 25.64731 | -104.41217 | 32260 ft | 413 kts | 229° |
| 2026-05-08 05:01 | 25.60895 | -104.45982 | 32267 ft | 416 kts | 230° |
| 2026-05-08 05:02 | 25.57052 | -104.50750 | 32272 ft | 414 kts | 229° |
| 2026-05-08 05:02 | 25.53215 | -104.55505 | 32271 ft | 413 kts | 229° |
| 2026-05-08 05:03 | 25.49366 | -104.60272 | 32281 ft | 416 kts | 230° |
| 2026-05-08 05:03 | 25.45499 | -104.65054 | 32281 ft | 416 kts | 229° |
| 2026-05-08 05:04 | 25.41670 | -104.69785 | 32306 ft | 414 kts | 229° |
| 2026-05-08 05:04 | 25.37795 | -104.74567 | 32310 ft | 417 kts | 229° |
| 2026-05-08 05:05 | 25.33946 | -104.79314 | 32316 ft | 415 kts | 229° |
| 2026-05-08 05:05 | 25.30073 | -104.84084 | 32314 ft | 415 kts | 229° |
| 2026-05-08 05:06 | 25.25825 | -104.88380 | 32315 ft | 419 kts | 218° |
| 2026-05-08 05:06 | 25.20852 | -104.91853 | 32330 ft | 420 kts | 215° |
| 2026-05-08 05:07 | 25.15920 | -104.95207 | 32327 ft | 418 kts | 215° |
| 2026-05-08 05:07 | 25.10922 | -104.98583 | 32337 ft | 420 kts | 215° |
| 2026-05-08 05:08 | 25.05956 | -105.01926 | 32351 ft | 418 kts | 214° |
| 2026-05-08 05:08 | 25.00969 | -105.05275 | 32345 ft | 420 kts | 214° |
| 2026-05-08 05:09 | 24.95978 | -105.08621 | 32360 ft | 421 kts | 215° |
| 2026-05-08 05:09 | 24.90973 | -105.11971 | 32360 ft | 420 kts | 214° |
| 2026-05-08 05:10 | 24.83489 | -105.16975 | 32392 ft | 423 kts | 214° |
| 2026-05-08 05:11 | 24.78449 | -105.20340 | 32394 ft | 420 kts | 214° |
| 2026-05-08 05:11 | 24.73458 | -105.23669 | 32390 ft | 422 kts | 214° |
| 2026-05-08 05:12 | 24.68401 | -105.27039 | 32396 ft | 423 kts | 214° |
| 2026-05-08 05:12 | 24.63393 | -105.30373 | 32404 ft | 423 kts | 214° |
| 2026-05-08 05:13 | 24.58364 | -105.33718 | 32412 ft | 424 kts | 214° |
| 2026-05-08 05:13 | 24.53298 | -105.37084 | 32423 ft | 422 kts | 214° |
| 2026-05-08 05:14 | 24.48293 | -105.40407 | 32430 ft | 423 kts | 214° |
| 2026-05-08 05:14 | 24.43252 | -105.43750 | 32433 ft | 424 kts | 214° |
| 2026-05-08 05:15 | 24.38203 | -105.47096 | 32438 ft | 422 kts | 214° |
| 2026-05-08 05:15 | 24.33172 | -105.50427 | 32430 ft | 424 kts | 215° |
| 2026-05-08 05:16 | 24.28129 | -105.53760 | 32423 ft | 422 kts | 215° |
| 2026-05-08 05:16 | 24.23078 | -105.57098 | 32429 ft | 424 kts | 214° |
| 2026-05-08 05:17 | 24.18029 | -105.60432 | 32428 ft | 423 kts | 214° |
| 2026-05-08 05:17 | 24.12993 | -105.63753 | 32426 ft | 423 kts | 214° |
| 2026-05-08 05:18 | 24.07969 | -105.67063 | 32438 ft | 423 kts | 214° |
| 2026-05-08 05:18 | 24.02918 | -105.70388 | 32443 ft | 424 kts | 214° |
| 2026-05-08 05:19 | 23.97852 | -105.73720 | 32443 ft | 423 kts | 214° |
| 2026-05-08 05:19 | 23.92812 | -105.77032 | 32432 ft | 424 kts | 214° |
| 2026-05-08 05:20 | 23.87756 | -105.80351 | 32394 ft | 423 kts | 214° |
| 2026-05-08 05:20 | 23.82725 | -105.83650 | 32343 ft | 424 kts | 214° |
| 2026-05-08 05:21 | 23.77667 | -105.86964 | 32277 ft | 425 kts | 214° |
| 2026-05-08 05:21 | 23.72600 | -105.90282 | 32218 ft | 425 kts | 214° |
| 2026-05-08 05:22 | 23.67524 | -105.93601 | 32138 ft | 425 kts | 214° |
| 2026-05-08 05:22 | 23.62440 | -105.96924 | 32098 ft | 428 kts | 214° |
| 2026-05-08 05:23 | 23.57343 | -106.00252 | 32073 ft | 427 kts | 214° |
| 2026-05-08 05:23 | 23.52242 | -106.03578 | 32065 ft | 427 kts | 214° |
| 2026-05-08 05:24 | 23.47154 | -106.06894 | 32047 ft | 426 kts | 214° |
| 2026-05-08 05:24 | 23.42050 | -106.10216 | 32017 ft | 427 kts | 214° |
| 2026-05-08 05:25 | 23.36966 | -106.13524 | 31969 ft | 428 kts | 214° |
| 2026-05-08 05:25 | 23.31845 | -106.16852 | 31948 ft | 429 kts | 214° |
| 2026-05-08 05:26 | 23.26737 | -106.20169 | 31928 ft | 429 kts | 214° |
| 2026-05-08 05:26 | 23.21581 | -106.23513 | 31907 ft | 429 kts | 214° |
| 2026-05-08 05:27 | 23.16852 | -106.27341 | 31897 ft | 426 kts | 226° |
| 2026-05-08 05:27 | 23.13179 | -106.32385 | 31892 ft | 425 kts | 239° |
| 2026-05-08 05:28 | 23.10243 | -106.37947 | 31887 ft | 425 kts | 240° |
| 2026-05-08 05:28 | 23.07327 | -106.43476 | 31881 ft | 425 kts | 240° |
| 2026-05-08 05:29 | 23.04375 | -106.49044 | 31877 ft | 426 kts | 240° |
| 2026-05-08 05:29 | 23.01428 | -106.54587 | 31871 ft | 423 kts | 240° |
| 2026-05-08 05:30 | 22.98468 | -106.60139 | 31869 ft | 425 kts | 239° |
| 2026-05-08 05:30 | 22.95516 | -106.65670 | 31872 ft | 424 kts | 239° |
| 2026-05-08 05:31 | 22.92559 | -106.71202 | 31885 ft | 422 kts | 239° |
| 2026-05-08 05:31 | 22.89603 | -106.76726 | 31889 ft | 423 kts | 239° |
| 2026-05-08 05:32 | 22.86661 | -106.82217 | 31904 ft | 423 kts | 239° |
| 2026-05-08 05:32 | 22.83710 | -106.87719 | 31911 ft | 423 kts | 239° |
| 2026-05-08 05:33 | 22.80746 | -106.93239 | 31911 ft | 425 kts | 239° |
| 2026-05-08 05:33 | 22.77770 | -106.98775 | 31911 ft | 424 kts | 239° |
| 2026-05-08 05:34 | 22.74824 | -107.04250 | 31913 ft | 424 kts | 239° |
| 2026-05-08 05:34 | 22.71854 | -107.09764 | 31913 ft | 423 kts | 239° |
| 2026-05-08 05:35 | 22.68896 | -107.15249 | 31916 ft | 423 kts | 239° |
| 2026-05-08 05:35 | 22.65930 | -107.20743 | 31913 ft | 423 kts | 239° |
| 2026-05-08 05:36 | 22.62962 | -107.26234 | 31912 ft | 422 kts | 239° |
| 2026-05-08 05:36 | 22.60002 | -107.31706 | 31909 ft | 423 kts | 239° |
| 2026-05-08 05:37 | 22.57034 | -107.37186 | 31911 ft | 422 kts | 239° |
| 2026-05-08 05:37 | 22.54068 | -107.42657 | 31911 ft | 422 kts | 239° |
| 2026-05-08 05:38 | 22.51110 | -107.48109 | 31907 ft | 423 kts | 239° |
| 2026-05-08 05:38 | 22.48138 | -107.53577 | 31907 ft | 423 kts | 240° |
| 2026-05-08 05:39 | 22.45154 | -107.59064 | 31906 ft | 423 kts | 240° |
| 2026-05-08 05:39 | 22.42189 | -107.64512 | 31907 ft | 423 kts | 239° |
| 2026-05-08 05:40 | 22.39194 | -107.70006 | 31923 ft | 423 kts | 239° |
| 2026-05-08 05:40 | 22.36234 | -107.75433 | 31923 ft | 422 kts | 239° |
| 2026-05-08 05:41 | 22.33253 | -107.80891 | 31922 ft | 424 kts | 239° |
| 2026-05-08 05:41 | 22.30257 | -107.86372 | 31922 ft | 422 kts | 239° |
| 2026-05-08 05:42 | 22.27293 | -107.91787 | 31924 ft | 421 kts | 239° |
| 2026-05-08 05:42 | 22.24316 | -107.97222 | 31921 ft | 421 kts | 239° |
| 2026-05-08 05:43 | 22.21332 | -108.02663 | 31923 ft | 422 kts | 239° |
| 2026-05-08 05:43 | 22.18326 | -108.08138 | 31920 ft | 423 kts | 239° |
| 2026-05-08 05:44 | 22.15343 | -108.13567 | 31920 ft | 422 kts | 239° |
| 2026-05-08 05:44 | 22.12343 | -108.19019 | 31922 ft | 422 kts | 239° |
| 2026-05-08 05:45 | 22.09345 | -108.24464 | 31922 ft | 421 kts | 239° |
| 2026-05-08 05:45 | 22.06364 | -108.29872 | 31923 ft | 422 kts | 239° |
| 2026-05-08 05:46 | 22.03350 | -108.35335 | 31920 ft | 424 kts | 240° |
| 2026-05-08 05:46 | 22.00360 | -108.40749 | 31916 ft | 423 kts | 239° |
| 2026-05-08 05:47 | 21.97349 | -108.46195 | 31925 ft | 424 kts | 239° |
| 2026-05-08 05:47 | 21.94344 | -108.51622 | 31922 ft | 422 kts | 240° |
| 2026-05-08 05:48 | 21.91340 | -108.57046 | 31922 ft | 422 kts | 239° |
| 2026-05-08 05:48 | 21.88337 | -108.62460 | 31939 ft | 420 kts | 239° |
| 2026-05-08 05:49 | 21.85338 | -108.67862 | 31948 ft | 422 kts | 239° |
| 2026-05-08 05:49 | 21.82336 | -108.73264 | 31946 ft | 420 kts | 239° |
| 2026-05-08 05:50 | 21.79339 | -108.78652 | 31946 ft | 422 kts | 239° |
| 2026-05-08 05:50 | 21.76316 | -108.84081 | 31956 ft | 422 kts | 239° |
| 2026-05-08 05:51 | 21.73306 | -108.89481 | 31951 ft | 422 kts | 239° |
| 2026-05-08 05:51 | 21.70285 | -108.94896 | 31946 ft | 421 kts | 239° |
| 2026-05-08 05:52 | 21.67285 | -109.00266 | 31947 ft | 422 kts | 239° |
| 2026-05-08 05:52 | 21.64255 | -109.05685 | 31946 ft | 422 kts | 239° |
| 2026-05-08 05:53 | 21.61241 | -109.11073 | 31948 ft | 423 kts | 239° |
| 2026-05-08 05:53 | 21.58211 | -109.16481 | 31946 ft | 423 kts | 239° |
| 2026-05-08 05:54 | 21.55184 | -109.21879 | 31952 ft | 423 kts | 239° |
| 2026-05-08 05:54 | 21.52172 | -109.27246 | 31946 ft | 422 kts | 239° |
| 2026-05-08 05:55 | 21.49126 | -109.32667 | 31943 ft | 423 kts | 239° |
| 2026-05-08 05:55 | 21.46084 | -109.38075 | 31945 ft | 425 kts | 240° |
| 2026-05-08 05:56 | 21.43040 | -109.43482 | 31948 ft | 422 kts | 239° |
| 2026-05-08 05:56 | 21.40011 | -109.48859 | 31942 ft | 424 kts | 239° |
| 2026-05-08 05:57 | 21.36953 | -109.54279 | 31944 ft | 424 kts | 240° |
| 2026-05-08 05:57 | 21.33918 | -109.59654 | 31950 ft | 425 kts | 240° |
| 2026-05-08 05:58 | 21.30863 | -109.65060 | 31943 ft | 424 kts | 239° |
| 2026-05-08 05:58 | 21.27800 | -109.70473 | 31964 ft | 423 kts | 239° |
| 2026-05-08 05:59 | 21.24752 | -109.75856 | 31963 ft | 423 kts | 239° |
| 2026-05-08 05:59 | 21.21710 | -109.81222 | 31960 ft | 424 kts | 239° |
| 2026-05-08 06:00 | 21.18632 | -109.86647 | 31958 ft | 424 kts | 239° |
| 2026-05-08 06:00 | 21.15579 | -109.92024 | 31959 ft | 426 kts | 239° |
| 2026-05-08 06:01 | 21.12496 | -109.97446 | 31949 ft | 427 kts | 239° |
| 2026-05-08 06:01 | 21.09393 | -110.02899 | 31946 ft | 427 kts | 240° |
| 2026-05-08 06:02 | 21.06309 | -110.08313 | 31939 ft | 427 kts | 240° |
| 2026-05-08 06:02 | 21.03216 | -110.13738 | 31948 ft | 426 kts | 239° |
| 2026-05-08 06:03 | 21.00134 | -110.19138 | 31957 ft | 426 kts | 239° |
| 2026-05-08 06:03 | 20.97053 | -110.24531 | 31961 ft | 425 kts | 239° |
| 2026-05-08 06:04 | 20.93988 | -110.29891 | 31966 ft | 425 kts | 239° |
| 2026-05-08 06:04 | 20.90903 | -110.35281 | 31962 ft | 424 kts | 239° |
| 2026-05-08 06:05 | 20.87822 | -110.40659 | 31969 ft | 425 kts | 239° |
| 2026-05-08 06:05 | 20.84749 | -110.46018 | 31973 ft | 423 kts | 239° |
| 2026-05-08 06:06 | 20.81668 | -110.51386 | 31969 ft | 424 kts | 239° |
| 2026-05-08 06:06 | 20.78591 | -110.56741 | 31968 ft | 424 kts | 239° |
| 2026-05-08 06:07 | 20.75493 | -110.62128 | 31963 ft | 425 kts | 239° |
| 2026-05-08 06:07 | 20.72410 | -110.67484 | 31979 ft | 426 kts | 239° |
| 2026-05-08 06:08 | 20.69313 | -110.72859 | 31965 ft | 425 kts | 239° |
| 2026-05-08 06:08 | 20.66220 | -110.78221 | 31969 ft | 425 kts | 239° |
| 2026-05-08 06:09 | 20.63111 | -110.83607 | 31969 ft | 426 kts | 239° |
| 2026-05-08 06:09 | 20.60017 | -110.88962 | 31966 ft | 425 kts | 239° |
| 2026-05-08 06:10 | 20.56914 | -110.94326 | 31966 ft | 425 kts | 239° |
| 2026-05-08 06:10 | 20.53806 | -110.99695 | 31961 ft | 426 kts | 239° |
| 2026-05-08 06:11 | 20.50710 | -111.05039 | 31967 ft | 425 kts | 239° |
| 2026-05-08 06:11 | 20.47596 | -111.10407 | 31964 ft | 424 kts | 239° |
| 2026-05-08 06:12 | 20.44484 | -111.15768 | 31964 ft | 425 kts | 239° |
| 2026-05-08 06:12 | 20.41394 | -111.21085 | 31963 ft | 425 kts | 239° |
| 2026-05-08 06:13 | 20.38282 | -111.26437 | 31967 ft | 426 kts | 239° |
| 2026-05-08 06:13 | 20.35162 | -111.31795 | 31965 ft | 428 kts | 239° |
| 2026-05-08 06:14 | 20.32017 | -111.37193 | 31964 ft | 426 kts | 239° |
| 2026-05-08 06:14 | 20.28907 | -111.42525 | 31969 ft | 428 kts | 239° |
| 2026-05-08 06:15 | 20.25775 | -111.47890 | 31967 ft | 427 kts | 239° |
| 2026-05-08 06:15 | 20.22647 | -111.53244 | 31969 ft | 426 kts | 239° |
| 2026-05-08 06:16 | 20.19510 | -111.58607 | 31964 ft | 426 kts | 239° |
| 2026-05-08 06:16 | 20.16359 | -111.63990 | 31964 ft | 427 kts | 239° |
| 2026-05-08 06:17 | 20.11668 | -111.71994 | 31979 ft | 426 kts | 238° |
| 2026-05-08 06:17 | 20.08512 | -111.77374 | 31983 ft | 428 kts | 239° |
| 2026-05-08 06:18 | 20.05367 | -111.82729 | 31979 ft | 427 kts | 238° |
| 2026-05-08 06:18 | 20.02232 | -111.88062 | 31984 ft | 428 kts | 238° |
| 2026-05-08 06:19 | 19.99081 | -111.93417 | 31983 ft | 427 kts | 238° |
| 2026-05-08 06:19 | 19.95934 | -111.98761 | 31982 ft | 427 kts | 239° |
| 2026-05-08 06:20 | 19.92786 | -112.04103 | 31981 ft | 426 kts | 238° |
| 2026-05-08 06:20 | 19.89627 | -112.09457 | 31981 ft | 427 kts | 239° |
| 2026-05-08 06:21 | 19.86463 | -112.14816 | 31990 ft | 428 kts | 239° |
| 2026-05-08 06:21 | 19.83303 | -112.20161 | 31989 ft | 427 kts | 238° |
| 2026-05-08 06:22 | 19.80145 | -112.25501 | 31991 ft | 428 kts | 238° |
| 2026-05-08 06:22 | 19.76972 | -112.30859 | 31990 ft | 428 kts | 238° |
| 2026-05-08 06:23 | 19.73792 | -112.36225 | 31988 ft | 430 kts | 239° |
| 2026-05-08 06:23 | 19.70629 | -112.41559 | 31988 ft | 430 kts | 239° |
| 2026-05-08 06:24 | 19.67434 | -112.46940 | 31988 ft | 429 kts | 238° |
| 2026-05-08 06:24 | 19.64265 | -112.52273 | 31987 ft | 429 kts | 238° |
| 2026-05-08 06:25 | 19.61082 | -112.57623 | 31986 ft | 429 kts | 239° |
| 2026-05-08 06:25 | 19.57922 | -112.62933 | 31987 ft | 428 kts | 239° |
| 2026-05-08 06:26 | 19.54727 | -112.68295 | 32000 ft | 430 kts | 238° |
| 2026-05-08 06:26 | 19.51554 | -112.73617 | 31999 ft | 429 kts | 238° |
| 2026-05-08 06:27 | 19.48360 | -112.78966 | 31998 ft | 430 kts | 238° |
| 2026-05-08 06:27 | 19.45160 | -112.84325 | 31997 ft | 430 kts | 238° |
| 2026-05-08 06:28 | 19.41980 | -112.89642 | 31996 ft | 429 kts | 238° |
| 2026-05-08 06:28 | 19.38776 | -112.94997 | 31993 ft | 431 kts | 238° |
| 2026-05-08 06:29 | 19.35586 | -113.00323 | 31992 ft | 429 kts | 238° |
| 2026-05-08 06:29 | 19.32378 | -113.05673 | 31992 ft | 429 kts | 238° |
| 2026-05-08 06:30 | 19.29188 | -113.10989 | 31992 ft | 429 kts | 238° |
| 2026-05-08 06:30 | 19.25981 | -113.16330 | 31998 ft | 431 kts | 238° |
| 2026-05-08 06:31 | 19.22777 | -113.21661 | 32001 ft | 430 kts | 238° |
| 2026-05-08 06:31 | 19.19565 | -113.26999 | 32001 ft | 432 kts | 238° |
| 2026-05-08 06:32 | 19.16347 | -113.32343 | 32001 ft | 432 kts | 238° |
| 2026-05-08 06:32 | 19.13100 | -113.37732 | 31995 ft | 433 kts | 238° |
| 2026-05-08 06:33 | 19.09876 | -113.43077 | 31988 ft | 433 kts | 238° |
| 2026-05-08 06:33 | 19.06644 | -113.48429 | 31987 ft | 434 kts | 238° |
| 2026-05-08 06:34 | 19.03392 | -113.53812 | 31987 ft | 433 kts | 238° |
| 2026-05-08 06:34 | 19.00172 | -113.59136 | 31988 ft | 433 kts | 238° |
| 2026-05-08 06:35 | 18.96925 | -113.64501 | 31983 ft | 434 kts | 238° |
| 2026-05-08 06:35 | 18.93679 | -113.69860 | 31993 ft | 434 kts | 238° |
| 2026-05-08 06:36 | 18.90422 | -113.75231 | 31987 ft | 434 kts | 238° |
| 2026-05-08 06:36 | 18.87170 | -113.80589 | 31992 ft | 433 kts | 238° |
| 2026-05-08 06:37 | 18.83927 | -113.85929 | 31991 ft | 432 kts | 238° |
| 2026-05-08 06:37 | 18.80681 | -113.91269 | 31990 ft | 434 kts | 238° |
| 2026-05-08 06:38 | 18.77426 | -113.96620 | 31989 ft | 434 kts | 238° |
| 2026-05-08 06:38 | 18.74172 | -114.01964 | 31988 ft | 434 kts | 238° |
| 2026-05-08 06:39 | 18.70900 | -114.07332 | 31989 ft | 436 kts | 238° |
| 2026-05-08 06:39 | 18.67619 | -114.12711 | 31989 ft | 436 kts | 238° |
| 2026-05-08 06:40 | 18.64341 | -114.18080 | 31990 ft | 435 kts | 238° |
| 2026-05-08 06:40 | 18.61068 | -114.23437 | 31990 ft | 434 kts | 238° |
| 2026-05-08 06:41 | 18.57783 | -114.28810 | 31987 ft | 436 kts | 238° |
| 2026-05-08 06:41 | 18.54513 | -114.34152 | 31986 ft | 434 kts | 238° |
| 2026-05-08 06:42 | 18.51242 | -114.39492 | 31985 ft | 435 kts | 238° |
| 2026-05-08 06:42 | 18.47958 | -114.44848 | 31985 ft | 436 kts | 238° |
| 2026-05-08 06:43 | 18.44657 | -114.50228 | 31984 ft | 436 kts | 238° |
| 2026-05-08 06:43 | 18.41380 | -114.55564 | 31984 ft | 435 kts | 238° |
| 2026-05-08 06:44 | 18.38095 | -114.60909 | 31983 ft | 437 kts | 238° |
| 2026-05-08 06:44 | 18.34790 | -114.66283 | 31990 ft | 436 kts | 238° |
| 2026-05-08 06:45 | 18.31500 | -114.71626 | 31993 ft | 439 kts | 238° |
| 2026-05-08 06:45 | 18.28190 | -114.76998 | 31997 ft | 437 kts | 238° |
| 2026-05-08 06:46 | 18.24866 | -114.82389 | 32003 ft | 437 kts | 238° |
| 2026-05-08 06:46 | 18.21574 | -114.87723 | 32005 ft | 437 kts | 238° |
| 2026-05-08 06:47 | 18.18262 | -114.93084 | 32005 ft | 436 kts | 238° |
| 2026-05-08 06:47 | 18.14966 | -114.98415 | 32005 ft | 438 kts | 238° |
| 2026-05-08 06:48 | 18.11651 | -115.03773 | 32005 ft | 438 kts | 238° |
| 2026-05-08 06:48 | 18.08327 | -115.09142 | 32004 ft | 438 kts | 238° |
| 2026-05-08 06:49 | 18.04995 | -115.14517 | 32002 ft | 438 kts | 238° |
| 2026-05-08 06:49 | 18.01689 | -115.19847 | 32001 ft | 438 kts | 238° |
| 2026-05-08 06:50 | 17.98356 | -115.25217 | 31999 ft | 438 kts | 238° |
| 2026-05-08 06:50 | 17.95026 | -115.30577 | 31997 ft | 439 kts | 238° |
| 2026-05-08 06:51 | 17.91693 | -115.35938 | 31996 ft | 440 kts | 238° |
| 2026-05-08 06:51 | 17.88364 | -115.41288 | 32003 ft | 439 kts | 238° |
| 2026-05-08 06:52 | 17.85014 | -115.46667 | 32001 ft | 442 kts | 238° |
| 2026-05-08 06:52 | 17.81645 | -115.52071 | 32000 ft | 442 kts | 238° |
| 2026-05-08 06:53 | 17.78292 | -115.57446 | 31997 ft | 442 kts | 238° |
| 2026-05-08 06:53 | 17.74927 | -115.62836 | 31997 ft | 443 kts | 238° |
| 2026-05-08 06:54 | 17.71557 | -115.68229 | 32004 ft | 443 kts | 237° |
| 2026-05-08 06:54 | 17.68193 | -115.73609 | 32007 ft | 442 kts | 238° |
| 2026-05-08 06:55 | 17.64814 | -115.79008 | 32005 ft | 443 kts | 237° |
| 2026-05-08 06:55 | 17.61453 | -115.84374 | 32003 ft | 442 kts | 237° |
| 2026-05-08 06:56 | 17.58082 | -115.89751 | 32003 ft | 442 kts | 237° |
| 2026-05-08 06:56 | 17.54698 | -115.95146 | 31999 ft | 443 kts | 237° |
| 2026-05-08 06:57 | 17.51307 | -116.00546 | 31998 ft | 444 kts | 238° |
| 2026-05-08 06:57 | 17.47929 | -116.05922 | 31997 ft | 443 kts | 238° |
| 2026-05-08 06:58 | 17.44532 | -116.11325 | 31996 ft | 444 kts | 237° |
| 2026-05-08 06:58 | 17.41146 | -116.16705 | 31992 ft | 443 kts | 238° |
| 2026-05-08 06:59 | 17.37745 | -116.22103 | 31994 ft | 444 kts | 237° |
| 2026-05-08 06:59 | 17.34342 | -116.27502 | 31999 ft | 443 kts | 238° |
| 2026-05-08 07:00 | 17.30953 | -116.32873 | 32002 ft | 442 kts | 237° |
| 2026-05-08 07:00 | 17.27574 | -116.38226 | 32002 ft | 444 kts | 238° |
| 2026-05-08 07:01 | 17.24154 | -116.43637 | 32000 ft | 444 kts | 238° |
| 2026-05-08 07:01 | 17.20766 | -116.48995 | 32001 ft | 444 kts | 238° |
| 2026-05-08 07:02 | 17.17353 | -116.54388 | 31999 ft | 444 kts | 238° |
| 2026-05-08 07:02 | 17.13966 | -116.59735 | 31999 ft | 443 kts | 238° |
| 2026-05-08 07:03 | 17.10552 | -116.65121 | 31997 ft | 442 kts | 237° |
| 2026-05-08 07:03 | 17.07152 | -116.70481 | 32009 ft | 442 kts | 237° |
| 2026-05-08 07:04 | 17.03747 | -116.75845 | 32008 ft | 445 kts | 237° |
| 2026-05-08 07:04 | 17.00349 | -116.81193 | 32004 ft | 443 kts | 237° |
| 2026-05-08 07:05 | 16.96939 | -116.86555 | 32003 ft | 444 kts | 237° |
| 2026-05-08 07:05 | 16.93529 | -116.91914 | 32003 ft | 444 kts | 237° |
| 2026-05-08 07:06 | 16.90098 | -116.97302 | 31997 ft | 445 kts | 237° |
| 2026-05-08 07:06 | 16.86670 | -117.02681 | 32003 ft | 447 kts | 237° |
| 2026-05-08 07:07 | 16.83221 | -117.08089 | 32006 ft | 446 kts | 237° |
| 2026-05-08 07:07 | 16.79798 | -117.13452 | 32002 ft | 446 kts | 237° |
| 2026-05-08 07:08 | 16.76368 | -117.18820 | 32000 ft | 446 kts | 237° |
| 2026-05-08 07:08 | 16.72932 | -117.24195 | 31994 ft | 447 kts | 237° |
| 2026-05-08 07:09 | 16.69471 | -117.29605 | 31990 ft | 446 kts | 237° |
| 2026-05-08 07:09 | 16.66025 | -117.34988 | 31987 ft | 447 kts | 237° |
| 2026-05-08 07:10 | 16.62586 | -117.40353 | 31988 ft | 448 kts | 237° |
| 2026-05-08 07:10 | 16.59126 | -117.45750 | 31987 ft | 447 kts | 237° |
| 2026-05-08 07:11 | 16.55666 | -117.51141 | 31988 ft | 448 kts | 237° |
| 2026-05-08 07:11 | 16.52205 | -117.56531 | 31988 ft | 448 kts | 237° |
| 2026-05-08 07:12 | 16.48758 | -117.61895 | 31986 ft | 449 kts | 237° |
| 2026-05-08 07:12 | 16.45280 | -117.67302 | 31996 ft | 447 kts | 237° |
| 2026-05-08 07:13 | 16.41817 | -117.72681 | 31995 ft | 447 kts | 237° |
| 2026-05-08 07:13 | 16.38348 | -117.78066 | 31992 ft | 448 kts | 237° |
| 2026-05-08 07:14 | 16.34888 | -117.83435 | 31989 ft | 449 kts | 237° |
| 2026-05-08 07:14 | 16.31402 | -117.88837 | 31987 ft | 449 kts | 237° |
| 2026-05-08 07:15 | 16.27927 | -117.94220 | 31985 ft | 449 kts | 237° |
| 2026-05-08 07:15 | 16.24426 | -117.99638 | 31988 ft | 451 kts | 237° |
| 2026-05-08 07:16 | 16.20937 | -118.05035 | 31986 ft | 451 kts | 237° |
| 2026-05-08 07:16 | 16.17422 | -118.10468 | 31985 ft | 450 kts | 237° |
| 2026-05-08 07:17 | 16.13931 | -118.15859 | 31983 ft | 449 kts | 237° |
| 2026-05-08 07:17 | 16.10443 | -118.21241 | 31983 ft | 450 kts | 237° |
| 2026-05-08 07:18 | 16.06940 | -118.26643 | 31981 ft | 450 kts | 237° |
| 2026-05-08 07:18 | 16.03434 | -118.32045 | 31982 ft | 451 kts | 237° |
| 2026-05-08 07:19 | 15.99928 | -118.37444 | 31982 ft | 452 kts | 237° |
| 2026-05-08 07:19 | 15.96400 | -118.42871 | 31980 ft | 453 kts | 237° |
| 2026-05-08 07:20 | 15.92891 | -118.48265 | 31980 ft | 451 kts | 237° |
| 2026-05-08 07:20 | 15.89365 | -118.53683 | 31978 ft | 451 kts | 237° |
| 2026-05-08 07:21 | 15.85865 | -118.59057 | 31986 ft | 453 kts | 237° |
| 2026-05-08 07:21 | 15.82331 | -118.64477 | 31982 ft | 452 kts | 237° |
| 2026-05-08 07:22 | 15.78803 | -118.69888 | 31992 ft | 453 kts | 237° |
| 2026-05-08 07:22 | 15.75285 | -118.75277 | 31991 ft | 452 kts | 237° |
| 2026-05-08 07:23 | 15.71762 | -118.80669 | 31988 ft | 454 kts | 237° |
| 2026-05-08 07:23 | 15.68207 | -118.86107 | 31985 ft | 454 kts | 237° |
| 2026-05-08 07:24 | 15.64669 | -118.91515 | 31981 ft | 454 kts | 237° |
| 2026-05-08 07:24 | 15.61136 | -118.96911 | 31980 ft | 454 kts | 237° |
| 2026-05-08 07:25 | 15.57582 | -119.02336 | 31980 ft | 455 kts | 237° |
| 2026-05-08 07:26 | 15.52247 | -119.10471 | 31986 ft | 453 kts | 237° |
| 2026-05-08 07:26 | 15.48715 | -119.15854 | 31990 ft | 453 kts | 237° |
| 2026-05-08 07:27 | 15.45165 | -119.21258 | 31985 ft | 455 kts | 237° |
| 2026-05-08 07:27 | 15.41604 | -119.26676 | 31980 ft | 455 kts | 237° |
| 2026-05-08 07:28 | 15.38049 | -119.32081 | 31976 ft | 454 kts | 237° |
| 2026-05-08 07:28 | 15.34481 | -119.37502 | 31975 ft | 456 kts | 237° |
| 2026-05-08 07:29 | 15.30914 | -119.42917 | 31975 ft | 455 kts | 237° |
| 2026-05-08 07:29 | 15.27360 | -119.48310 | 31972 ft | 455 kts | 237° |
| 2026-05-08 07:30 | 15.23798 | -119.53709 | 31969 ft | 455 kts | 237° |
| 2026-05-08 07:30 | 15.20236 | -119.59106 | 31967 ft | 456 kts | 237° |
| 2026-05-08 07:31 | 15.16655 | -119.64529 | 31970 ft | 456 kts | 237° |
| 2026-05-08 07:31 | 15.13081 | -119.69936 | 31975 ft | 455 kts | 237° |
| 2026-05-08 07:32 | 15.09516 | -119.75324 | 31978 ft | 456 kts | 237° |
| 2026-05-08 07:32 | 15.05936 | -119.80733 | 31969 ft | 456 kts | 237° |
| 2026-05-08 07:33 | 15.02366 | -119.86122 | 31970 ft | 456 kts | 237° |
| 2026-05-08 07:33 | 14.98797 | -119.91508 | 31968 ft | 454 kts | 237° |
| 2026-05-08 07:34 | 14.95210 | -119.96915 | 31966 ft | 456 kts | 237° |
| 2026-05-08 07:34 | 14.91610 | -120.02339 | 31967 ft | 457 kts | 237° |
| 2026-05-08 07:35 | 14.88028 | -120.07733 | 31963 ft | 457 kts | 237° |
| 2026-05-08 07:35 | 14.84421 | -120.13161 | 31969 ft | 456 kts | 237° |
| 2026-05-08 07:36 | 14.80829 | -120.18561 | 31968 ft | 457 kts | 237° |
| 2026-05-08 07:36 | 14.77240 | -120.23953 | 31966 ft | 456 kts | 237° |
| 2026-05-08 07:37 | 14.73635 | -120.29366 | 31967 ft | 457 kts | 237° |
| 2026-05-08 07:37 | 14.70031 | -120.34774 | 31968 ft | 457 kts | 237° |
| 2026-05-08 07:38 | 14.66416 | -120.40194 | 31969 ft | 457 kts | 237° |
| 2026-05-08 07:38 | 14.62785 | -120.45635 | 31964 ft | 459 kts | 237° |
| 2026-05-08 07:39 | 14.59184 | -120.51027 | 31967 ft | 458 kts | 237° |
| 2026-05-08 07:39 | 14.55568 | -120.56439 | 31964 ft | 458 kts | 237° |
| 2026-05-08 07:40 | 14.51963 | -120.61829 | 31961 ft | 458 kts | 237° |
| 2026-05-08 07:40 | 14.48339 | -120.67245 | 31975 ft | 458 kts | 237° |
| 2026-05-08 07:41 | 14.44737 | -120.72624 | 31972 ft | 459 kts | 237° |
| 2026-05-08 07:41 | 14.41113 | -120.78033 | 31972 ft | 458 kts | 237° |
| 2026-05-08 07:42 | 14.37470 | -120.83466 | 31971 ft | 459 kts | 237° |
| 2026-05-08 07:42 | 14.33842 | -120.88874 | 31971 ft | 461 kts | 237° |
| 2026-05-08 07:43 | 14.30207 | -120.94287 | 31971 ft | 458 kts | 237° |
| 2026-05-08 07:43 | 14.26566 | -120.99708 | 31971 ft | 460 kts | 237° |
| 2026-05-08 07:44 | 14.22921 | -121.05128 | 31960 ft | 460 kts | 237° |
| 2026-05-08 07:44 | 14.19297 | -121.10516 | 31956 ft | 459 kts | 237° |
| 2026-05-08 07:45 | 14.15647 | -121.15939 | 31952 ft | 460 kts | 237° |
| 2026-05-08 07:45 | 14.12020 | -121.21323 | 31955 ft | 460 kts | 237° |
| 2026-05-08 07:46 | 14.08367 | -121.26742 | 31949 ft | 461 kts | 237° |
| 2026-05-08 07:46 | 14.04707 | -121.32169 | 31950 ft | 461 kts | 237° |
| 2026-05-08 07:47 | 14.01043 | -121.37598 | 31953 ft | 461 kts | 237° |
| 2026-05-08 07:47 | 13.97409 | -121.42979 | 31951 ft | 461 kts | 237° |
| 2026-05-08 07:48 | 13.93741 | -121.48406 | 31953 ft | 461 kts | 237° |
| 2026-05-08 07:48 | 13.90090 | -121.53805 | 31946 ft | 462 kts | 237° |
| 2026-05-08 07:49 | 13.86424 | -121.59223 | 31951 ft | 461 kts | 237° |
| 2026-05-08 07:49 | 13.82747 | -121.64655 | 31949 ft | 462 kts | 237° |
| 2026-05-08 07:50 | 13.79066 | -121.70087 | 31958 ft | 462 kts | 237° |
| 2026-05-08 07:50 | 13.75385 | -121.75517 | 31957 ft | 462 kts | 237° |
| 2026-05-08 07:51 | 13.71722 | -121.80917 | 31953 ft | 462 kts | 237° |
| 2026-05-08 07:51 | 13.68046 | -121.86332 | 31948 ft | 462 kts | 237° |
| 2026-05-08 07:52 | 13.64363 | -121.91753 | 31944 ft | 463 kts | 237° |
| 2026-05-08 07:52 | 13.60673 | -121.97182 | 31945 ft | 463 kts | 237° |
| 2026-05-08 07:53 | 13.56985 | -122.02605 | 31944 ft | 463 kts | 237° |
| 2026-05-08 07:53 | 13.53286 | -122.08041 | 31944 ft | 464 kts | 237° |
| 2026-05-08 07:54 | 13.49609 | -122.13441 | 31943 ft | 463 kts | 237° |
| 2026-05-08 07:54 | 13.45894 | -122.18893 | 31948 ft | 466 kts | 237° |
| 2026-05-08 07:55 | 13.42180 | -122.24340 | 31942 ft | 463 kts | 237° |
| 2026-05-08 07:55 | 13.38494 | -122.29744 | 31943 ft | 465 kts | 238° |
| 2026-05-08 07:56 | 13.34775 | -122.35191 | 31944 ft | 464 kts | 238° |
| 2026-05-08 07:56 | 13.31082 | -122.40597 | 31942 ft | 465 kts | 238° |
| 2026-05-08 07:57 | 13.27367 | -122.46033 | 31938 ft | 464 kts | 237° |
| 2026-05-08 07:57 | 13.23666 | -122.51444 | 31943 ft | 465 kts | 238° |
| 2026-05-08 07:58 | 13.19946 | -122.56880 | 31941 ft | 466 kts | 238° |
| 2026-05-08 07:58 | 13.16232 | -122.62305 | 31943 ft | 465 kts | 238° |
| 2026-05-08 07:59 | 13.12520 | -122.67722 | 31948 ft | 467 kts | 238° |
| 2026-05-08 07:59 | 13.08783 | -122.73173 | 31949 ft | 467 kts | 238° |
| 2026-05-08 08:00 | 13.05058 | -122.78603 | 31949 ft | 466 kts | 238° |
| 2026-05-08 08:00 | 13.01336 | -122.84025 | 31946 ft | 465 kts | 238° |
| 2026-05-08 08:01 | 12.97602 | -122.89461 | 31945 ft | 466 kts | 238° |
| 2026-05-08 08:01 | 12.93889 | -122.94864 | 31946 ft | 465 kts | 238° |
| 2026-05-08 08:02 | 12.90162 | -123.00285 | 31943 ft | 466 kts | 238° |
| 2026-05-08 08:02 | 12.86423 | -123.05718 | 31940 ft | 467 kts | 238° |
| 2026-05-08 08:03 | 12.82682 | -123.11152 | 31937 ft | 469 kts | 238° |
| 2026-05-08 08:03 | 12.78925 | -123.16605 | 31937 ft | 468 kts | 238° |
| 2026-05-08 08:04 | 12.75192 | -123.22021 | 31938 ft | 467 kts | 238° |
| 2026-05-08 08:04 | 12.71445 | -123.27454 | 31935 ft | 468 kts | 238° |
| 2026-05-08 08:05 | 12.67676 | -123.32915 | 31936 ft | 467 kts | 238° |
| 2026-05-08 08:05 | 12.63944 | -123.38320 | 31934 ft | 468 kts | 238° |
| 2026-05-08 08:06 | 12.60181 | -123.43766 | 31931 ft | 468 kts | 238° |
| 2026-05-08 08:06 | 12.56422 | -123.49204 | 31932 ft | 467 kts | 238° |
| 2026-05-08 08:07 | 12.52663 | -123.54638 | 31931 ft | 469 kts | 238° |
| 2026-05-08 08:07 | 12.48891 | -123.60086 | 31928 ft | 468 kts | 238° |
| 2026-05-08 08:08 | 12.45153 | -123.65484 | 31935 ft | 468 kts | 238° |
| 2026-05-08 08:08 | 12.41378 | -123.70933 | 31942 ft | 468 kts | 238° |
| 2026-05-08 08:09 | 12.37616 | -123.76358 | 31942 ft | 469 kts | 238° |
| 2026-05-08 08:09 | 12.33829 | -123.81817 | 31938 ft | 469 kts | 238° |
| 2026-05-08 08:10 | 12.30041 | -123.87274 | 31933 ft | 469 kts | 238° |
| 2026-05-08 08:10 | 12.26283 | -123.92685 | 31931 ft | 471 kts | 238° |
| 2026-05-08 08:11 | 12.22496 | -123.98133 | 31931 ft | 469 kts | 238° |
| 2026-05-08 08:11 | 12.18713 | -124.03575 | 31931 ft | 470 kts | 238° |
| 2026-05-08 08:12 | 12.14934 | -124.09006 | 31931 ft | 469 kts | 238° |
| 2026-05-08 08:12 | 12.11133 | -124.14468 | 31927 ft | 471 kts | 238° |
| 2026-05-08 08:13 | 12.07341 | -124.19911 | 31925 ft | 470 kts | 238° |
| 2026-05-08 08:13 | 12.03573 | -124.25317 | 31924 ft | 471 kts | 238° |
| 2026-05-08 08:14 | 11.99772 | -124.30769 | 31926 ft | 470 kts | 238° |
| 2026-05-08 08:14 | 11.95994 | -124.36185 | 31928 ft | 471 kts | 238° |
| 2026-05-08 08:15 | 11.92189 | -124.41635 | 31936 ft | 471 kts | 238° |
| 2026-05-08 08:15 | 11.88361 | -124.47116 | 31936 ft | 473 kts | 238° |
| 2026-05-08 08:16 | 11.84566 | -124.52546 | 31931 ft | 472 kts | 238° |
| 2026-05-08 08:16 | 11.80743 | -124.58013 | 31932 ft | 472 kts | 238° |
| 2026-05-08 08:17 | 11.76952 | -124.63432 | 31934 ft | 471 kts | 238° |
| 2026-05-08 08:17 | 11.73128 | -124.68896 | 31936 ft | 472 kts | 238° |
| 2026-05-08 08:18 | 11.69317 | -124.74337 | 31930 ft | 474 kts | 238° |
| 2026-05-08 08:18 | 11.65486 | -124.79803 | 31934 ft | 473 kts | 238° |
| 2026-05-08 08:19 | 11.61659 | -124.85262 | 31930 ft | 474 kts | 238° |
| 2026-05-08 08:19 | 11.57824 | -124.90730 | 31927 ft | 474 kts | 238° |
| 2026-05-08 08:20 | 11.53997 | -124.96181 | 31928 ft | 475 kts | 238° |
| 2026-05-08 08:20 | 11.50170 | -125.01630 | 31923 ft | 474 kts | 238° |
| 2026-05-08 08:21 | 11.46318 | -125.07112 | 31927 ft | 475 kts | 238° |
| 2026-05-08 08:21 | 11.42487 | -125.12562 | 31927 ft | 474 kts | 238° |
| 2026-05-08 08:22 | 11.38645 | -125.18023 | 31925 ft | 474 kts | 238° |
| 2026-05-08 08:22 | 11.34808 | -125.23475 | 31926 ft | 474 kts | 238° |
| 2026-05-08 08:23 | 11.30951 | -125.28953 | 31923 ft | 475 kts | 238° |
| 2026-05-08 08:23 | 11.27117 | -125.34394 | 31926 ft | 474 kts | 238° |
| 2026-05-08 08:24 | 11.23260 | -125.39867 | 31925 ft | 475 kts | 238° |
| 2026-05-08 08:24 | 11.19402 | -125.45336 | 31928 ft | 476 kts | 238° |
| 2026-05-08 08:25 | 11.15544 | -125.50805 | 31925 ft | 478 kts | 237° |
| 2026-05-08 08:25 | 11.11667 | -125.56294 | 31927 ft | 476 kts | 237° |
| 2026-05-08 08:26 | 11.07819 | -125.61742 | 31922 ft | 476 kts | 238° |
| 2026-05-08 08:26 | 11.03945 | -125.67223 | 31929 ft | 476 kts | 237° |
| 2026-05-08 08:27 | 11.00088 | -125.72678 | 31931 ft | 477 kts | 238° |
| 2026-05-08 08:27 | 10.96191 | -125.78186 | 31929 ft | 477 kts | 237° |
| 2026-05-08 08:28 | 10.92322 | -125.83652 | 31930 ft | 478 kts | 237° |
| 2026-05-08 08:28 | 10.88442 | -125.89131 | 31926 ft | 478 kts | 237° |
| 2026-05-08 08:29 | 10.84538 | -125.94640 | 31920 ft | 477 kts | 237° |